createdAt,value
2023-02-11T00:02:08.380Z,101639.98
2023-02-11T00:04:36.398Z,101632.55
2023-02-11T00:07:04.345Z,101634.60
2023-02-11T00:09:37.926Z,101631.41
2023-02-11T00:12:06.134Z,101631.41
2023-02-11T00:14:33.962Z,101631.53
2023-02-11T00:17:02.369Z,101625.55
2023-02-11T00:19:30.711Z,101623.11
2023-02-11T00:21:59.004Z,101621.53
2023-02-11T00:24:26.956Z,101621.03
2023-02-11T00:26:54.829Z,101622.30
2023-02-11T00:29:23.327Z,101625.64
2023-02-11T00:31:51.376Z,101626.68
2023-02-11T00:34:19.360Z,101626.17
2023-02-11T00:36:47.205Z,101624.45
2023-02-11T00:39:16.060Z,101629.33
2023-02-11T00:41:44.909Z,101623.72
2023-02-11T00:44:14.044Z,101620.92
2023-02-11T00:46:42.082Z,101617.40
2023-02-11T00:49:11.596Z,101617.36
2023-02-11T00:51:39.857Z,101623.77
2023-02-11T00:54:08.143Z,101624.41
2023-02-11T00:56:36.492Z,101622.96
2023-02-11T00:59:04.544Z,101623.45
2023-02-11T01:01:33.434Z,101617.83
2023-02-11T01:04:01.990Z,101617.59
2023-02-11T01:06:29.980Z,101616.00
2023-02-11T01:08:59.233Z,101617.90
2023-02-11T01:11:27.798Z,101610.67
2023-02-11T01:13:55.692Z,101610.96
2023-02-11T01:16:23.992Z,101608.83
2023-02-11T01:18:53.474Z,101606.66
2023-02-11T01:21:21.479Z,101606.98
2023-02-11T01:23:52.442Z,101606.06
2023-02-11T01:26:20.278Z,101611.09
2023-02-11T01:28:48.172Z,101611.60
2023-02-11T01:31:16.167Z,101613.70
2023-02-11T01:33:44.155Z,101614.55
2023-02-11T01:36:12.812Z,101613.15
2023-02-11T01:38:41.358Z,101608.23
2023-02-11T01:41:10.957Z,101606.45
2023-02-11T01:43:42.134Z,101603.27
2023-02-11T01:46:28.655Z,101604.63
2023-02-11T01:49:00.316Z,101607.46
2023-02-11T01:51:35.367Z,101609.58
2023-02-11T01:54:23.014Z,101611.00
2023-02-11T01:57:12.160Z,101602.45
2023-02-11T02:00:06.560Z,101594.46
2023-02-11T02:02:52.797Z,101590.06
2023-02-11T02:05:42.750Z,101591.81
2023-02-11T02:08:18.386Z,101589.41
2023-02-11T02:10:48.007Z,101587.55
2023-02-11T02:13:18.318Z,101585.65
2023-02-11T02:15:58.770Z,101586.67
2023-02-11T02:18:45.475Z,101582.60
2023-02-11T02:21:45.531Z,101575.56
2023-02-11T02:24:35.152Z,101573.44
2023-02-11T02:27:15.326Z,101574.52
2023-02-11T02:30:22.103Z,101571.72
2023-02-11T02:33:22.462Z,101565.78
2023-02-11T02:35:57.897Z,101563.58
2023-02-11T02:38:35.474Z,101567.02
2023-02-11T02:41:04.967Z,101561.73
2023-02-11T02:43:33.145Z,101563.29
2023-02-11T02:46:16.974Z,101563.30
2023-02-11T02:48:45.098Z,101560.49
2023-02-11T02:51:36.276Z,101566.45
2023-02-11T02:54:38.661Z,101566.30
2023-02-11T02:57:34.839Z,101563.76
2023-02-11T03:00:26.548Z,101569.55
2023-02-11T03:03:03.347Z,101571.64
2023-02-11T03:05:58.770Z,101572.14
2023-02-11T03:08:33.970Z,101572.78
2023-02-11T03:11:01.941Z,101570.98
2023-02-11T03:13:33.766Z,101564.77
2023-02-11T03:16:15.900Z,101560.30
2023-02-11T03:18:46.337Z,101560.73
2023-02-11T03:21:14.314Z,101559.02
2023-02-11T03:23:51.140Z,101557.67
2023-02-11T03:26:30.321Z,101556.46
2023-02-11T03:29:17.131Z,101554.55
2023-02-11T03:31:49.757Z,101552.42
2023-02-11T03:34:36.373Z,101548.56
2023-02-11T03:37:08.083Z,101547.67
2023-02-11T03:39:38.418Z,101540.84
2023-02-11T03:42:06.967Z,101544.67
2023-02-11T03:44:37.867Z,101539.77
2023-02-11T03:47:06.010Z,101540.80
2023-02-11T03:49:34.313Z,101537.96
2023-02-11T03:52:03.880Z,101533.95
2023-02-11T03:54:32.527Z,101529.60
2023-02-11T03:57:01.157Z,101524.45
2023-02-11T03:59:29.438Z,101522.63
2023-02-11T04:01:59.638Z,101514.46
2023-02-11T04:04:27.565Z,101514.02
2023-02-11T04:06:55.777Z,101509.85
2023-02-11T04:09:23.659Z,101507.64
2023-02-11T04:11:51.764Z,101514.16
2023-02-11T04:14:19.703Z,101509.83
2023-02-11T04:16:48.073Z,101502.88
2023-02-11T04:19:16.777Z,101501.30
2023-02-11T04:21:44.731Z,101502.36
2023-02-11T04:24:12.738Z,101503.02
2023-02-11T04:26:41.080Z,101505.10
2023-02-11T04:29:09.984Z,101502.77
2023-02-11T04:31:37.932Z,101501.58
2023-02-11T04:34:05.892Z,101493.11
2023-02-11T04:36:34.868Z,101490.04
2023-02-11T04:39:02.784Z,101494.99
2023-02-11T04:41:31.108Z,101486.93
2023-02-11T04:43:59.022Z,101483.95
2023-02-11T04:46:29.340Z,101478.14
2023-02-11T04:48:57.851Z,101467.99
2023-02-11T04:51:25.782Z,101468.65
2023-02-11T04:53:56.620Z,101468.47
2023-02-11T04:56:24.635Z,101464.64
2023-02-11T04:58:52.512Z,101459.09
2023-02-11T05:01:20.645Z,101454.75
2023-02-11T05:03:48.615Z,101453.79
2023-02-11T05:06:17.059Z,101449.09
2023-02-11T05:08:44.972Z,101448.96
2023-02-11T05:11:23.296Z,101446.61
2023-02-11T05:13:51.465Z,101448.75
2023-02-11T05:16:20.720Z,101451.28
2023-02-11T05:18:52.468Z,101454.00
2023-02-11T05:21:20.563Z,101454.60
2023-02-11T05:23:48.603Z,101454.19
2023-02-11T05:26:16.690Z,101458.67
2023-02-11T05:28:45.091Z,101460.36
2023-02-11T05:31:14.935Z,101458.73
2023-02-11T05:33:43.306Z,101458.98
2023-02-11T05:36:11.969Z,101455.92
2023-02-11T05:38:40.022Z,101454.75
2023-02-11T05:41:07.884Z,101451.14
2023-02-11T05:43:36.827Z,101444.85
2023-02-11T05:46:05.226Z,101445.53
2023-02-11T05:48:34.044Z,101441.67
2023-02-11T05:51:03.619Z,101440.73
2023-02-11T05:53:31.625Z,101438.80
2023-02-11T05:55:59.834Z,101436.99
2023-02-11T05:58:28.160Z,101431.54
2023-02-11T06:00:56.445Z,101430.20
2023-02-11T06:03:24.890Z,101427.05
2023-02-11T06:05:53.285Z,101427.64
2023-02-11T06:08:22.853Z,101423.39
2023-02-11T06:10:54.030Z,101421.64
2023-02-11T06:13:21.951Z,101413.67
2023-02-11T06:16:00.148Z,101405.32
2023-02-11T06:18:29.557Z,101398.61
2023-02-11T06:20:57.550Z,101394.56
2023-02-11T06:23:30.330Z,101390.83
2023-02-11T06:26:02.312Z,101388.25
2023-02-11T06:28:33.352Z,101387.85
2023-02-11T06:31:06.772Z,101383.86
2023-02-11T06:33:35.550Z,101377.55
2023-02-11T06:36:04.213Z,101379.23
2023-02-11T06:38:33.176Z,101379.70
2023-02-11T06:41:01.253Z,101374.73
2023-02-11T06:43:29.376Z,101366.05
2023-02-11T06:45:57.311Z,101369.98
2023-02-11T06:48:25.264Z,101366.48
2023-02-11T06:50:53.174Z,101354.36
2023-02-11T06:53:21.515Z,101352.26
2023-02-11T06:55:49.536Z,101344.80
2023-02-11T06:58:18.333Z,101337.73
2023-02-11T07:00:46.219Z,101335.66
2023-02-11T07:03:14.145Z,101333.22
2023-02-11T07:05:43.137Z,101334.23
2023-02-11T07:08:11.130Z,101329.99
2023-02-11T07:10:42.232Z,101327.56
2023-02-11T07:13:10.182Z,101321.30
2023-02-11T07:15:38.510Z,101318.45
2023-02-11T07:18:06.822Z,101323.54
2023-02-11T07:20:37.314Z,101323.34
2023-02-11T07:23:05.351Z,101317.33
2023-02-11T07:25:33.276Z,101321.80
2023-02-11T07:28:05.290Z,101320.30
2023-02-11T07:30:34.167Z,101324.80
2023-02-11T07:33:02.085Z,101325.11
2023-02-11T07:35:30.195Z,101329.52
2023-02-11T07:37:58.420Z,101326.53
2023-02-11T07:40:26.558Z,101325.97
2023-02-11T07:42:54.706Z,101320.10
2023-02-11T07:45:25.365Z,101315.95
2023-02-11T07:47:53.834Z,101315.58
2023-02-11T07:50:21.886Z,101317.12
2023-02-11T07:52:49.866Z,101314.66
2023-02-11T07:55:18.260Z,101311.41
2023-02-11T07:57:46.282Z,101304.48
2023-02-11T08:00:15.002Z,101297.41
2023-02-11T08:02:42.892Z,101289.58
2023-02-11T08:05:11.248Z,101283.75
2023-02-11T08:07:39.622Z,101274.63
2023-02-11T08:10:08.005Z,101273.63
2023-02-11T08:12:36.566Z,101270.23
2023-02-11T08:15:04.760Z,101264.65
2023-02-11T08:17:35.490Z,101270.12
2023-02-11T08:20:04.754Z,101264.36
2023-02-11T08:22:33.997Z,101256.59
2023-02-11T08:25:01.982Z,101254.91
2023-02-11T08:27:32.036Z,101250.94
2023-02-11T08:30:00.439Z,101249.44
2023-02-11T08:32:28.734Z,101243.03
2023-02-11T08:34:56.971Z,101236.91
2023-02-11T08:37:24.905Z,101237.38
2023-02-11T08:39:52.848Z,101234.52
2023-02-11T08:42:20.831Z,101237.39
2023-02-11T08:44:48.736Z,101235.60
2023-02-11T08:47:16.852Z,101236.88
2023-02-11T08:49:45.202Z,101235.76
2023-02-11T08:52:13.361Z,101237.17
2023-02-11T08:54:41.587Z,101235.02
2023-02-11T08:57:09.543Z,101223.55
2023-02-11T08:59:40.004Z,101220.33
2023-02-11T09:02:13.299Z,101216.09
2023-02-11T09:04:41.228Z,101209.86
2023-02-11T09:07:13.501Z,101206.90
2023-02-11T09:09:42.199Z,101209.38
2023-02-11T09:12:10.176Z,101209.52
2023-02-11T09:14:39.246Z,101205.39
2023-02-11T09:17:07.725Z,101203.39
2023-02-11T09:19:36.279Z,101205.03
2023-02-11T09:22:04.680Z,101204.77
2023-02-11T09:24:32.821Z,101202.33
2023-02-11T09:27:01.209Z,101194.80
2023-02-11T09:29:29.220Z,101185.88
2023-02-11T09:31:57.225Z,101176.30
2023-02-11T09:34:25.072Z,101163.10
2023-02-11T09:36:53.082Z,101161.38
2023-02-11T09:39:20.985Z,101160.17
2023-02-11T09:41:59.714Z,101162.90
2023-02-11T09:44:30.340Z,101158.58
2023-02-11T09:47:20.955Z,101156.57
2023-02-11T09:49:51.341Z,101156.05
2023-02-11T09:52:37.933Z,101148.10
2023-02-11T09:55:15.274Z,101141.30
2023-02-11T09:57:43.557Z,101129.28
2023-02-11T10:00:23.472Z,101116.98
2023-02-11T10:03:01.175Z,101112.16
2023-02-11T10:05:58.273Z,101111.28
2023-02-11T10:08:42.901Z,101115.61
2023-02-11T10:11:56.534Z,101104.14
2023-02-11T10:14:28.545Z,101094.32
2023-02-11T10:17:34.423Z,101090.16
2023-02-11T10:20:23.815Z,101083.84
2023-02-11T10:22:57.300Z,101079.84
2023-02-11T10:25:39.601Z,101072.48
2023-02-11T10:28:32.234Z,101067.27
2023-02-11T10:31:13.771Z,101059.02
2023-02-11T10:33:58.836Z,101051.77
2023-02-11T10:36:33.429Z,101052.97
2023-02-11T10:39:11.876Z,101048.56
2023-02-11T10:41:44.760Z,101042.18
2023-02-11T10:44:28.238Z,101039.00
2023-02-11T10:46:56.420Z,101034.41
2023-02-11T10:49:54.099Z,101030.34
2023-02-11T10:52:27.078Z,101027.75
2023-02-11T10:55:01.440Z,101025.36
2023-02-11T10:57:33.907Z,101021.85
2023-02-11T11:00:08.608Z,101013.48
2023-02-11T11:02:38.753Z,101006.77
2023-02-11T11:05:16.352Z,101000.50
2023-02-11T11:09:30.816Z,100998.16
2023-02-11T11:11:58.634Z,100991.39
2023-02-11T11:14:29.116Z,100985.31
2023-02-11T11:16:57.263Z,100982.75
2023-02-11T11:19:26.038Z,100976.59
2023-02-11T11:21:54.938Z,100963.69
2023-02-11T11:24:46.823Z,100955.34
2023-02-11T11:27:19.671Z,100949.30
2023-02-11T11:29:50.020Z,100944.18
2023-02-11T11:32:26.233Z,100938.50
2023-02-11T11:34:55.935Z,100933.08
2023-02-11T11:37:27.024Z,100929.63
2023-02-11T11:40:25.270Z,100924.28
2023-02-11T11:43:23.037Z,100918.05
2023-02-11T11:45:58.809Z,100912.31
2023-02-11T11:48:32.958Z,100910.29
2023-02-11T11:51:02.992Z,100908.77
2023-02-11T11:54:00.493Z,100903.52
2023-02-11T11:56:30.740Z,100889.39
2023-02-11T11:59:00.935Z,100876.76
2023-02-11T12:01:47.989Z,100867.73
2023-02-11T12:04:37.908Z,100863.81
2023-02-11T12:07:15.217Z,100872.08
2023-02-11T12:10:04.764Z,100864.34
2023-02-11T12:13:05.489Z,100856.53
2023-02-11T12:15:58.784Z,100851.38
2023-02-11T12:18:47.627Z,100839.35
2023-02-11T12:21:39.058Z,100829.70
2023-02-11T12:24:31.929Z,100822.65
2023-02-11T12:27:27.127Z,100808.02
2023-02-11T12:30:16.531Z,100807.30
2023-02-11T12:33:04.891Z,100803.38
2023-02-11T12:36:04.026Z,100798.48
2023-02-11T12:38:43.094Z,100793.14
2023-02-11T12:41:39.998Z,100787.42
2023-02-11T12:44:11.406Z,100781.03
2023-02-11T12:47:02.850Z,100782.86
2023-02-11T12:49:43.010Z,100779.83
2023-02-11T12:52:39.181Z,100777.23
2023-02-11T12:55:20.749Z,100768.11
2023-02-11T12:57:49.207Z,100766.65
2023-02-11T13:00:22.920Z,100766.88
2023-02-11T13:02:54.575Z,100762.48
2023-02-11T13:05:49.721Z,100760.69
2023-02-11T13:08:21.398Z,100746.63
2023-02-11T13:10:54.106Z,100745.66
2023-02-11T13:13:25.674Z,100735.73
2023-02-11T13:16:09.489Z,100728.92
2023-02-11T13:19:13.407Z,100724.37
2023-02-11T13:22:05.978Z,100713.88
2023-02-11T13:24:40.067Z,100710.32
2023-02-11T13:27:28.991Z,100703.11
2023-02-11T13:30:36.881Z,100697.50
2023-02-11T13:33:06.825Z,100689.52
2023-02-11T13:35:35.639Z,100682.55
2023-02-11T13:38:16.448Z,100674.50
2023-02-11T13:40:44.373Z,100668.48
2023-02-11T13:43:21.796Z,100663.60
2023-02-11T13:45:50.548Z,100659.70
2023-02-11T13:48:27.187Z,100658.16
2023-02-11T13:50:58.185Z,100655.66
2023-02-11T13:53:27.912Z,100658.79
2023-02-11T13:56:11.362Z,100660.60
2023-02-11T13:58:49.567Z,100660.17
2023-02-11T14:02:05.841Z,100661.59
2023-02-11T14:04:53.384Z,100658.30
2023-02-11T14:07:50.951Z,100655.60
2023-02-11T14:10:41.114Z,100653.67
2023-02-11T14:13:31.027Z,100656.54
2023-02-11T14:16:36.863Z,100655.95
2023-02-11T14:19:06.794Z,100654.94
2023-02-11T14:21:38.784Z,100654.34
2023-02-11T14:24:13.142Z,100656.88
2023-02-11T14:26:47.048Z,100659.05
2023-02-11T14:29:20.119Z,100649.91
2023-02-11T14:31:51.512Z,100640.46
2023-02-11T14:34:28.276Z,100636.12
2023-02-11T14:37:14.161Z,100633.09
2023-02-11T14:39:54.780Z,100620.53
2023-02-11T14:42:26.917Z,100608.60
2023-02-11T14:45:04.101Z,100604.36
2023-02-11T14:47:58.692Z,100600.83
2023-02-11T14:50:32.026Z,100598.68
2023-02-11T14:53:01.164Z,100590.61
2023-02-11T14:55:38.047Z,100583.83
2023-02-11T14:58:29.655Z,100577.70
2023-02-11T15:01:29.828Z,100574.35
2023-02-11T15:04:00.548Z,100573.48
2023-02-11T15:06:28.895Z,100571.02
2023-02-11T15:09:01.016Z,100562.23
2023-02-11T15:11:39.859Z,100557.33
2023-02-11T15:14:18.870Z,100556.85
2023-02-11T15:16:46.799Z,100551.39
2023-02-11T15:19:34.674Z,100553.23
2023-02-11T15:22:06.818Z,100553.17
2023-02-11T15:24:35.589Z,100553.63
2023-02-11T15:27:15.542Z,100558.90
2023-02-11T15:29:45.365Z,100557.92
2023-02-11T15:32:17.023Z,100555.54
2023-02-11T15:34:45.869Z,100553.10
2023-02-11T15:37:27.466Z,100554.92
2023-02-11T15:39:56.027Z,100551.62
2023-02-11T15:42:40.759Z,100539.97
2023-02-11T15:45:15.395Z,100537.92
2023-02-11T15:47:52.004Z,100534.55
2023-02-11T15:50:31.257Z,100541.52
2023-02-11T15:53:01.179Z,100544.98
2023-02-11T15:55:29.192Z,100547.27
2023-02-11T15:58:00.292Z,100550.83
2023-02-11T16:00:34.585Z,100549.23
2023-02-11T16:03:02.572Z,100540.80
2023-02-11T16:05:35.757Z,100531.16
2023-02-11T16:08:22.010Z,100527.23
2023-02-11T16:11:08.665Z,100526.88
2023-02-11T16:13:46.819Z,100525.31
2023-02-11T16:16:25.653Z,100527.37
2023-02-11T16:19:04.581Z,100523.20
2023-02-11T16:21:39.007Z,100521.11
2023-02-11T16:24:07.497Z,100518.97
2023-02-11T16:26:41.041Z,100514.64
2023-02-11T16:29:16.881Z,100517.63
2023-02-11T16:31:46.888Z,100514.23
2023-02-11T16:34:23.312Z,100508.88
2023-02-11T16:36:52.146Z,100511.89
2023-02-11T16:39:24.580Z,100503.51
2023-02-11T16:41:52.752Z,100501.01
2023-02-11T16:44:21.795Z,100498.15
2023-02-11T16:46:51.980Z,100497.13
2023-02-11T16:49:24.659Z,100495.02
2023-02-11T16:51:54.022Z,100488.77
2023-02-11T16:54:23.511Z,100478.93
2023-02-11T16:56:51.368Z,100471.27
2023-02-11T16:59:21.367Z,100474.70
2023-02-11T17:01:49.668Z,100475.05
2023-02-11T17:04:24.082Z,100472.08
2023-02-11T17:06:55.996Z,100464.86
2023-02-11T17:09:30.134Z,100453.84
2023-02-11T17:12:01.785Z,100457.08
2023-02-11T17:14:30.131Z,100451.80
2023-02-11T17:16:58.250Z,100444.92
2023-02-11T17:19:26.148Z,100441.88
2023-02-11T17:21:54.265Z,100441.21
2023-02-11T17:24:22.870Z,100437.25
2023-02-11T17:26:50.882Z,100430.82
2023-02-11T17:29:22.436Z,100425.20
2023-02-11T17:31:52.007Z,100426.92
2023-02-11T17:34:21.201Z,100420.30
2023-02-11T17:36:49.384Z,100417.99
2023-02-11T17:39:17.548Z,100417.14
2023-02-11T17:41:46.648Z,100416.04
2023-02-11T17:44:16.601Z,100411.73
2023-02-11T17:46:45.142Z,100413.02
2023-02-11T17:49:16.594Z,100411.79
2023-02-11T17:51:50.107Z,100408.62
2023-02-11T17:54:18.784Z,100409.11
2023-02-11T17:56:49.286Z,100407.13
2023-02-11T17:59:19.471Z,100406.59
2023-02-11T18:01:47.472Z,100401.67
2023-02-11T18:04:17.604Z,100403.77
2023-02-11T18:06:45.542Z,100405.48
2023-02-11T18:09:13.423Z,100402.79
2023-02-11T18:11:41.292Z,100400.34
2023-02-11T18:14:10.372Z,100391.59
2023-02-11T18:16:43.113Z,100390.67
2023-02-11T18:19:11.544Z,100385.52
2023-02-11T18:21:39.551Z,100390.58
2023-02-11T18:24:07.453Z,100394.33
2023-02-11T18:26:35.498Z,100393.37
2023-02-11T18:29:03.962Z,100391.41
2023-02-11T18:31:31.986Z,100393.27
2023-02-11T18:34:00.003Z,100388.16
2023-02-11T18:36:28.385Z,100386.69
2023-02-11T18:38:58.228Z,100388.15
2023-02-11T18:41:29.846Z,100383.22
2023-02-11T18:43:58.733Z,100376.17
2023-02-11T18:46:26.769Z,100381.80
2023-02-11T18:48:56.227Z,100378.34
2023-02-11T18:51:24.608Z,100380.58
2023-02-11T18:53:54.621Z,100373.84
2023-02-11T18:56:23.673Z,100373.56
2023-02-11T18:58:52.181Z,100367.48
2023-02-11T19:01:24.210Z,100367.15
2023-02-11T19:03:58.096Z,100366.07
2023-02-11T19:06:27.429Z,100363.67
2023-02-11T19:09:04.233Z,100365.42
2023-02-11T19:11:49.937Z,100361.48
2023-02-11T19:14:20.432Z,100366.39
2023-02-11T19:16:50.771Z,100362.63
2023-02-11T19:19:19.057Z,100361.83
2023-02-11T19:21:48.945Z,100358.64
2023-02-11T19:24:19.844Z,100359.45
2023-02-11T19:26:48.565Z,100356.90
2023-02-11T19:29:16.901Z,100354.95
2023-02-11T19:31:45.131Z,100349.38
2023-02-11T19:34:15.035Z,100347.72
2023-02-11T19:36:43.302Z,100343.80
2023-02-11T19:39:11.411Z,100345.08
2023-02-11T19:41:39.570Z,100337.61
2023-02-11T19:44:07.904Z,100334.14
2023-02-11T19:46:37.571Z,100330.94
2023-02-11T19:49:05.655Z,100324.48
2023-02-11T19:51:37.462Z,100322.23
2023-02-11T19:54:06.380Z,100319.61
2023-02-11T19:56:34.356Z,100310.64
2023-02-11T19:59:02.883Z,100310.73
2023-02-11T20:01:31.060Z,100309.33
2023-02-11T20:03:59.052Z,100307.96
2023-02-11T20:06:28.679Z,100307.14
2023-02-11T20:09:06.542Z,100302.47
2023-02-11T20:11:34.861Z,100300.35
2023-02-11T20:14:03.700Z,100300.76
2023-02-11T20:16:46.900Z,100298.10
2023-02-11T20:19:21.977Z,100296.65
2023-02-11T20:21:53.781Z,100296.43
2023-02-11T20:24:23.575Z,100293.36
2023-02-11T20:26:55.959Z,100295.20
2023-02-11T20:29:24.465Z,100294.50
2023-02-11T20:31:52.917Z,100290.23
2023-02-11T20:34:22.106Z,100291.94
2023-02-11T20:36:53.535Z,100290.05
2023-02-11T20:39:22.669Z,100284.16
2023-02-11T20:41:51.422Z,100279.52
2023-02-11T20:44:21.859Z,100277.94
2023-02-11T20:46:50.240Z,100277.86
2023-02-11T20:49:19.973Z,100275.88
2023-02-11T20:51:49.373Z,100277.79
2023-02-11T20:54:18.993Z,100273.25
2023-02-11T20:56:51.257Z,100267.19
2023-02-11T20:59:19.789Z,100275.35
2023-02-11T21:01:53.485Z,100274.33
2023-02-11T21:04:26.227Z,100271.58
2023-02-11T21:06:56.082Z,100272.12
2023-02-11T21:09:25.732Z,100267.55
2023-02-11T21:11:57.037Z,100265.48
2023-02-11T21:14:25.710Z,100268.70
2023-02-11T21:16:53.592Z,100260.52
2023-02-11T21:19:21.613Z,100269.11
2023-02-11T21:21:49.938Z,100266.81
2023-02-11T21:24:18.050Z,100270.50
2023-02-11T21:26:48.981Z,100268.42
2023-02-11T21:29:17.068Z,100267.93
2023-02-11T21:31:45.098Z,100266.55
2023-02-11T21:34:17.270Z,100254.00
2023-02-11T21:36:45.459Z,100250.55
2023-02-11T21:39:13.974Z,100244.83
2023-02-11T21:41:41.862Z,100243.22
2023-02-11T21:44:12.084Z,100241.05
2023-02-11T21:46:40.336Z,100241.15
2023-02-11T21:49:11.657Z,100244.55
2023-02-11T21:51:39.666Z,100244.06
2023-02-11T21:54:07.582Z,100246.68
2023-02-11T21:56:36.652Z,100247.25
2023-02-11T21:59:04.592Z,100247.38
2023-02-11T22:01:33.253Z,100240.51
2023-02-11T22:04:01.310Z,100246.85
2023-02-11T22:06:31.428Z,100248.67
2023-02-11T22:09:02.092Z,100243.04
2023-02-11T22:11:32.719Z,100242.43
2023-02-11T22:14:00.810Z,100235.72
2023-02-11T22:16:30.715Z,100233.14
2023-02-11T22:18:59.281Z,100229.69
2023-02-11T22:21:28.059Z,100229.54
2023-02-11T22:23:56.073Z,100233.04
2023-02-11T22:26:26.502Z,100231.02
2023-02-11T22:28:55.045Z,100231.42
2023-02-11T22:31:28.478Z,100229.84
2023-02-11T22:33:56.916Z,100228.75
2023-02-11T22:36:29.743Z,100229.13
2023-02-11T22:39:05.178Z,100227.82
2023-02-11T22:41:33.399Z,100232.64
2023-02-11T22:44:01.680Z,100229.02
2023-02-11T22:46:29.865Z,100226.69
2023-02-11T22:49:00.462Z,100229.82
2023-02-11T22:51:29.380Z,100234.86
2023-02-11T22:53:59.114Z,100233.40
2023-02-11T22:56:27.825Z,100236.42
2023-02-11T22:59:03.388Z,100240.91
2023-02-11T23:01:31.759Z,100239.16
2023-02-11T23:04:01.170Z,100237.73
2023-02-11T23:06:29.237Z,100229.70
2023-02-11T23:08:57.324Z,100239.39
2023-02-11T23:11:29.139Z,100237.50
2023-02-11T23:13:59.148Z,100239.04
2023-02-11T23:16:29.141Z,100236.52
2023-02-11T23:18:59.352Z,100235.75
2023-02-11T23:21:29.470Z,100238.63
2023-02-11T23:24:03.482Z,100236.13
2023-02-11T23:28:12.458Z,100240.71
2023-02-11T23:30:41.613Z,100238.50
2023-02-11T23:33:09.793Z,100240.35
2023-02-11T23:35:37.704Z,100244.45
2023-02-11T23:38:05.694Z,100245.89
2023-02-11T23:40:33.663Z,100254.41
2023-02-11T23:43:01.646Z,100253.52
2023-02-11T23:45:29.599Z,100255.23
2023-02-11T23:47:57.498Z,100249.08
2023-02-11T23:50:26.220Z,100249.83
2023-02-11T23:52:54.206Z,100255.35
2023-02-11T23:55:22.263Z,100260.58
2023-02-11T23:57:50.234Z,100256.52
